createdAt,value
2019-05-18T00:02:08.537Z,25.60
2019-05-18T00:04:42.184Z,26.30
2019-05-18T00:07:15.766Z,25.75
2019-05-18T00:09:49.340Z,25.60
2019-05-18T00:12:22.894Z,25.10
2019-05-18T00:14:56.383Z,25.52
2019-05-18T00:17:30.014Z,27.37
2019-05-18T00:20:04.846Z,26.50
2019-05-18T00:22:38.394Z,28.60
2019-05-18T00:25:12.154Z,26.65
2019-05-18T00:27:45.696Z,26.97
2019-05-18T00:30:19.340Z,27.22
2019-05-18T00:32:52.821Z,26.90
2019-05-18T00:35:26.343Z,27.95
2019-05-18T00:37:59.814Z,28.15
2019-05-18T00:40:33.475Z,27.25
2019-05-18T00:43:07.055Z,28.73
2019-05-18T00:45:40.766Z,27.67
2019-05-18T00:48:14.276Z,27.00
2019-05-18T00:50:47.834Z,29.40
2019-05-18T00:53:21.540Z,26.73
2019-05-18T00:55:55.175Z,25.88
2019-05-18T00:58:28.991Z,27.90
2019-05-18T01:01:02.465Z,25.77
2019-05-18T01:03:36.015Z,26.68
2019-05-18T01:06:09.651Z,25.48
2019-05-18T01:08:43.214Z,25.70
2019-05-18T01:11:16.822Z,26.25
2019-05-18T01:13:50.397Z,24.52
2019-05-18T01:16:24.002Z,30.62
2019-05-18T01:18:57.489Z,26.33
2019-05-18T01:21:31.224Z,24.27
2019-05-18T01:24:04.970Z,24.32
2019-05-18T01:26:38.558Z,25.62
2019-05-18T01:29:12.184Z,24.30
2019-05-18T01:31:45.706Z,26.85
2019-05-18T01:34:19.256Z,26.40
2019-05-18T01:36:52.738Z,26.23
2019-05-18T01:39:26.352Z,25.62
2019-05-18T01:41:59.918Z,26.93
2019-05-18T01:44:33.400Z,27.10
2019-05-18T01:47:06.982Z,26.00
2019-05-18T01:49:40.570Z,26.93
2019-05-18T01:52:14.228Z,25.25
2019-05-18T01:54:47.851Z,26.93
2019-05-18T01:57:21.378Z,27.13
2019-05-18T01:59:54.817Z,27.52
2019-05-18T02:02:28.456Z,29.23
2019-05-18T02:05:02.123Z,28.17
2019-05-18T02:07:35.831Z,27.75
2019-05-18T02:10:09.853Z,29.25
2019-05-18T02:12:43.336Z,30.43
2019-05-18T02:15:17.098Z,30.77
2019-05-18T02:17:50.625Z,33.63
2019-05-18T02:20:24.244Z,29.95
2019-05-18T02:22:57.745Z,30.48
2019-05-18T02:25:31.282Z,31.93
2019-05-18T02:28:06.543Z,28.98
2019-05-18T02:30:40.080Z,29.20
2019-05-18T02:33:13.573Z,28.17
2019-05-18T02:35:47.120Z,30.35
2019-05-18T02:38:20.648Z,30.65
2019-05-18T02:40:54.269Z,30.90
2019-05-18T02:43:27.916Z,30.65
2019-05-18T02:46:01.471Z,31.00
2019-05-18T02:48:49.000Z,32.05
2019-05-18T02:51:11.722Z,30.32
2019-05-18T02:53:45.527Z,30.52
2019-05-18T02:56:19.207Z,30.55
2019-05-18T02:58:52.696Z,28.98
2019-05-18T03:01:26.511Z,30.48
2019-05-18T03:04:00.097Z,28.55
2019-05-18T03:06:33.667Z,29.20
2019-05-18T03:09:07.619Z,29.27
2019-05-18T03:11:41.327Z,27.40
2019-05-18T03:14:14.975Z,28.65
2019-05-18T03:16:48.532Z,27.67
2019-05-18T03:19:22.166Z,27.95
2019-05-18T03:21:55.638Z,28.55
2019-05-18T03:24:29.193Z,27.13
2019-05-18T03:27:02.725Z,27.90
2019-05-18T03:29:36.315Z,29.07
2019-05-18T03:32:09.797Z,26.02
2019-05-18T03:34:43.430Z,27.90
2019-05-18T03:37:16.911Z,26.02
2019-05-18T03:39:50.561Z,25.77
2019-05-18T03:42:24.115Z,26.60
2019-05-18T03:44:57.698Z,25.60
2019-05-18T03:47:31.252Z,26.00
2019-05-18T03:50:07.502Z,26.10
2019-05-18T03:52:40.985Z,26.37
2019-05-18T03:55:14.619Z,26.12
2019-05-18T03:57:48.099Z,24.43
2019-05-18T04:00:21.622Z,24.65
2019-05-18T04:02:55.165Z,23.83
2019-05-18T04:05:28.756Z,24.47
2019-05-18T04:08:02.215Z,25.00
2019-05-18T04:10:35.870Z,25.75
2019-05-18T04:13:09.375Z,23.38
2019-05-18T04:15:42.977Z,24.27
2019-05-18T04:18:16.471Z,25.02
2019-05-18T04:20:49.979Z,24.32
2019-05-18T04:23:23.569Z,23.12
2019-05-18T04:25:57.071Z,23.02
2019-05-18T04:28:30.603Z,24.18
2019-05-18T04:31:04.192Z,23.65
2019-05-18T04:33:37.660Z,23.35
2019-05-18T04:36:11.174Z,24.63
2019-05-18T04:38:44.655Z,24.47
2019-05-18T04:41:18.255Z,24.90
2019-05-18T04:43:51.867Z,25.50
2019-05-18T04:46:25.487Z,25.17
2019-05-18T04:48:59.033Z,24.47
2019-05-18T04:51:32.520Z,24.98
2019-05-18T04:54:06.217Z,24.63
2019-05-18T04:56:42.896Z,25.12
2019-05-18T04:59:15.189Z,25.50
2019-05-18T05:01:48.901Z,23.87
2019-05-18T05:04:22.568Z,24.57
2019-05-18T05:06:56.037Z,24.60
2019-05-18T05:09:29.536Z,25.52
2019-05-18T05:12:03.127Z,25.65
2019-05-18T05:14:36.692Z,24.55
2019-05-18T05:17:10.340Z,25.43
2019-05-18T05:19:43.821Z,24.10
2019-05-18T05:22:17.392Z,24.27
2019-05-18T05:24:50.873Z,24.52
2019-05-18T05:27:24.550Z,24.25
2019-05-18T05:29:58.288Z,23.42
2019-05-18T05:32:31.925Z,23.05
2019-05-18T05:35:06.547Z,24.77
2019-05-18T05:37:40.058Z,23.18
2019-05-18T05:40:13.884Z,23.45
2019-05-18T05:42:47.466Z,23.22
2019-05-18T05:45:21.088Z,23.05
2019-05-18T05:47:54.587Z,23.22
2019-05-18T05:50:36.047Z,23.38
2019-05-18T05:53:03.388Z,23.92
2019-05-18T05:55:36.922Z,23.57
2019-05-18T05:58:10.513Z,24.37
2019-05-18T06:00:44.141Z,24.32
2019-05-18T06:03:17.666Z,22.45
2019-05-18T06:05:51.234Z,22.50
2019-05-18T06:08:24.935Z,22.67
2019-05-18T06:10:58.478Z,23.75
2019-05-18T06:13:32.056Z,23.67
2019-05-18T06:16:05.724Z,22.45
2019-05-18T06:18:39.299Z,23.27
2019-05-18T06:21:12.782Z,22.70
2019-05-18T06:23:46.274Z,21.50
2019-05-18T06:26:19.857Z,22.17
2019-05-18T06:28:53.586Z,23.10
2019-05-18T06:31:27.078Z,21.65
2019-05-18T06:34:00.577Z,21.17
2019-05-18T06:36:34.134Z,21.50
2019-05-18T06:39:08.407Z,21.50
2019-05-18T06:41:41.870Z,21.15
2019-05-18T06:44:15.461Z,19.73
2019-05-18T06:46:48.962Z,21.45
2019-05-18T06:49:22.485Z,20.97
2019-05-18T06:51:56.062Z,19.12
2019-05-18T06:54:30.013Z,19.20
2019-05-18T06:57:04.348Z,18.37
2019-05-18T06:59:38.367Z,17.27
2019-05-18T07:02:11.903Z,17.80
2019-05-18T07:04:45.402Z,16.87
2019-05-18T07:07:19.202Z,17.15
2019-05-18T07:09:52.719Z,17.55
2019-05-18T07:12:26.268Z,18.15
2019-05-18T07:15:00.462Z,17.07
2019-05-18T07:17:34.744Z,18.35
2019-05-18T07:20:09.123Z,17.27
2019-05-18T07:22:42.743Z,16.57
2019-05-18T07:25:16.435Z,16.32
2019-05-18T07:27:50.017Z,16.77
2019-05-18T07:30:23.708Z,17.80
2019-05-18T07:32:57.180Z,16.80
2019-05-18T07:35:30.836Z,16.97
2019-05-18T07:38:04.391Z,15.93
2019-05-18T07:40:38.123Z,16.62
2019-05-18T07:43:11.621Z,15.30
2019-05-18T07:45:45.242Z,16.17
2019-05-18T07:48:18.747Z,16.15
2019-05-18T07:50:52.432Z,15.50
2019-05-18T07:53:25.933Z,14.83
2019-05-18T07:55:59.467Z,14.28
2019-05-18T07:58:33.050Z,15.32
2019-05-18T08:01:06.613Z,15.00
2019-05-18T08:03:40.115Z,13.25
2019-05-18T08:06:13.714Z,13.90
2019-05-18T08:08:47.325Z,13.50
2019-05-18T08:11:20.933Z,13.85
2019-05-18T08:13:54.418Z,14.58
2019-05-18T08:16:27.950Z,13.22
2019-05-18T08:19:01.429Z,13.55
2019-05-18T08:21:35.079Z,13.83
2019-05-18T08:24:08.758Z,13.40
2019-05-18T08:26:42.387Z,13.62
2019-05-18T08:29:15.859Z,12.93
2019-05-18T08:31:49.373Z,13.30
2019-05-18T08:34:24.013Z,13.03
2019-05-18T08:36:57.561Z,14.03
2019-05-18T08:39:31.037Z,12.55
2019-05-18T08:42:04.695Z,13.58
2019-05-18T08:44:38.173Z,12.80
2019-05-18T08:47:11.749Z,13.20
2019-05-18T08:49:45.301Z,14.00
2019-05-18T08:52:18.845Z,12.88
2019-05-18T08:54:52.386Z,12.95
2019-05-18T08:57:25.999Z,13.93
2019-05-18T08:59:59.483Z,11.57
2019-05-18T09:02:33.071Z,10.28
2019-05-18T09:05:07.176Z,10.30
2019-05-18T09:07:40.716Z,11.05
2019-05-18T09:10:16.040Z,10.23
2019-05-18T09:12:49.750Z,9.73
2019-05-18T09:15:23.439Z,9.50
2019-05-18T09:17:56.995Z,10.53
2019-05-18T09:20:30.566Z,10.00
2019-05-18T09:23:04.109Z,9.88
2019-05-18T09:25:37.654Z,9.85
2019-05-18T09:28:11.237Z,10.38
2019-05-18T09:30:45.187Z,11.15
2019-05-18T09:33:18.735Z,11.03
2019-05-18T09:35:52.266Z,11.90
2019-05-18T09:38:25.887Z,11.97
2019-05-18T09:40:59.475Z,13.28
2019-05-18T09:43:33.074Z,13.25
2019-05-18T09:46:06.696Z,12.03
2019-05-18T09:48:40.298Z,13.03
2019-05-18T09:51:14.074Z,13.60
2019-05-18T09:53:51.601Z,12.82
2019-05-18T09:56:22.935Z,12.55
2019-05-18T09:58:56.560Z,12.93
2019-05-18T10:01:30.101Z,12.98
2019-05-18T10:04:03.884Z,12.70
2019-05-18T10:06:37.446Z,11.88
2019-05-18T10:09:11.197Z,11.38
2019-05-18T10:11:44.743Z,10.63
2019-05-18T10:14:18.257Z,10.70
2019-05-18T10:16:51.842Z,10.60
2019-05-18T10:19:25.592Z,10.15
2019-05-18T10:21:59.266Z,8.55
2019-05-18T10:24:32.850Z,9.15
2019-05-18T10:27:06.519Z,8.65
2019-05-18T10:29:40.034Z,8.60
2019-05-18T10:32:13.645Z,8.68
2019-05-18T10:34:47.136Z,8.33
2019-05-18T10:37:20.612Z,8.40
2019-05-18T10:39:54.284Z,8.78
2019-05-18T10:42:27.732Z,9.53
2019-05-18T10:45:01.239Z,8.95
2019-05-18T10:47:34.728Z,8.70
2019-05-18T10:50:09.992Z,7.70
2019-05-18T10:52:43.565Z,8.18
2019-05-18T10:55:17.505Z,7.80
2019-05-18T10:57:51.062Z,7.40
2019-05-18T11:00:24.797Z,7.22
2019-05-18T11:02:58.348Z,7.83
2019-05-18T11:05:31.931Z,7.67
2019-05-18T11:08:05.580Z,8.23
2019-05-18T11:10:39.288Z,8.65
2019-05-18T11:13:12.937Z,7.60
2019-05-18T11:15:46.537Z,7.55
2019-05-18T11:18:20.090Z,8.20
2019-05-18T11:20:53.658Z,7.87
2019-05-18T11:23:27.170Z,7.22
2019-05-18T11:26:00.804Z,7.70
2019-05-18T11:28:34.354Z,7.50
2019-05-18T11:31:07.940Z,7.78
2019-05-18T11:33:41.497Z,7.05
2019-05-18T11:36:20.666Z,6.85
2019-05-18T11:38:55.020Z,6.40
2019-05-18T11:41:28.747Z,6.95
2019-05-18T11:44:02.387Z,7.08
2019-05-18T11:46:35.967Z,6.72
2019-05-18T11:49:09.568Z,7.00
2019-05-18T11:51:43.067Z,6.60
2019-05-18T11:54:16.536Z,7.30
2019-05-18T11:56:50.101Z,7.55
2019-05-18T11:59:23.563Z,6.40
2019-05-18T12:01:57.057Z,6.35
2019-05-18T12:04:30.617Z,6.53
2019-05-18T12:07:04.297Z,6.08
2019-05-18T12:09:37.813Z,7.20
2019-05-18T12:12:13.879Z,6.53
2019-05-18T12:14:47.412Z,6.53
2019-05-18T12:17:20.917Z,6.17
2019-05-18T12:19:54.376Z,5.67
2019-05-18T12:22:27.907Z,6.67
2019-05-18T12:25:01.431Z,6.30
2019-05-18T12:27:34.937Z,6.28
2019-05-18T12:30:10.885Z,5.85
2019-05-18T12:32:44.485Z,6.50
2019-05-18T12:35:19.525Z,6.00
2019-05-18T12:37:53.162Z,6.20
2019-05-18T12:40:26.875Z,6.15
2019-05-18T12:43:00.411Z,5.65
2019-05-18T12:45:34.071Z,5.67
2019-05-18T12:48:07.672Z,6.60
2019-05-18T12:50:41.264Z,6.30
2019-05-18T12:53:17.577Z,6.03
2019-05-18T12:55:50.212Z,5.50
2019-05-18T12:58:23.801Z,6.00
2019-05-18T13:00:57.436Z,5.90
2019-05-18T13:03:30.935Z,5.28
2019-05-18T13:06:05.745Z,5.55
2019-05-18T13:08:39.259Z,6.08
2019-05-18T13:11:12.927Z,5.75
2019-05-18T13:13:46.449Z,5.58
2019-05-18T13:16:20.054Z,5.60
2019-05-18T13:18:53.656Z,5.37
2019-05-18T13:21:27.229Z,5.28
2019-05-18T13:24:00.916Z,6.10
2019-05-18T13:26:34.434Z,5.92
2019-05-18T13:29:07.930Z,6.03
2019-05-18T13:31:41.481Z,5.80
2019-05-18T13:34:15.001Z,5.70
2019-05-18T13:36:48.475Z,5.22
2019-05-18T13:39:22.116Z,5.55
2019-05-18T13:41:55.647Z,5.42
2019-05-18T13:44:29.293Z,5.90
2019-05-18T13:47:02.765Z,5.65
2019-05-18T13:49:36.270Z,5.90
2019-05-18T13:52:09.839Z,5.45
2019-05-18T13:54:43.339Z,5.72
2019-05-18T13:57:17.012Z,5.85
2019-05-18T13:59:50.510Z,6.10
2019-05-18T14:02:24.144Z,5.80
2019-05-18T14:04:57.791Z,5.80
2019-05-18T14:07:31.456Z,6.45
2019-05-18T14:10:12.464Z,5.62
2019-05-18T14:12:45.525Z,5.90
2019-05-18T14:15:22.922Z,5.90
2019-05-18T14:17:55.960Z,5.90
2019-05-18T14:20:29.557Z,6.60
2019-05-18T14:23:03.078Z,5.95
2019-05-18T14:25:36.831Z,5.42
2019-05-18T14:28:10.403Z,7.45
2019-05-18T14:30:43.986Z,6.08
2019-05-18T14:33:18.877Z,5.40
2019-05-18T14:35:52.380Z,6.10
2019-05-18T14:38:25.858Z,5.83
2019-05-18T14:40:59.463Z,4.87
2019-05-18T14:43:33.160Z,5.60
2019-05-18T14:46:06.788Z,5.15
2019-05-18T14:48:40.330Z,5.17
2019-05-18T14:51:13.974Z,5.62
2019-05-18T14:53:47.448Z,6.05
2019-05-18T14:56:21.021Z,6.03
2019-05-18T14:58:54.555Z,5.87
2019-05-18T15:01:28.067Z,5.05
2019-05-18T15:04:01.720Z,5.55
2019-05-18T15:06:35.203Z,5.30
2019-05-18T15:09:08.736Z,5.42
2019-05-18T15:11:42.456Z,4.97
2019-05-18T15:14:15.973Z,6.35
2019-05-18T15:16:52.831Z,5.05
2019-05-18T15:22:31.170Z,5.12
2019-05-18T15:25:05.309Z,5.60
2019-05-18T15:27:38.970Z,5.40
2019-05-18T15:30:13.304Z,5.40
2019-05-18T15:32:47.056Z,5.42
2019-05-18T15:35:20.787Z,4.80
2019-05-18T15:37:54.445Z,5.00
2019-05-18T15:40:27.996Z,4.90
2019-05-18T15:43:01.478Z,4.83
2019-05-18T15:45:35.205Z,4.72
2019-05-18T15:48:08.814Z,4.75
2019-05-18T15:50:42.354Z,4.58
2019-05-18T15:53:16.035Z,4.00
2019-05-18T15:55:49.513Z,4.75
2019-05-18T15:58:23.173Z,4.40
2019-05-18T16:00:56.783Z,3.58
2019-05-18T16:03:30.469Z,4.47
2019-05-18T16:06:04.082Z,14.78
2019-05-18T16:08:37.643Z,5.95
2019-05-18T16:11:11.183Z,6.15
2019-05-18T16:13:44.744Z,6.12
2019-05-18T16:16:18.302Z,4.28
2019-05-18T16:18:51.830Z,8.13
2019-05-18T16:21:25.292Z,6.72
2019-05-18T16:23:58.820Z,11.43
2019-05-18T16:26:32.382Z,4.55
2019-05-18T16:29:06.150Z,6.65
2019-05-18T16:31:39.854Z,4.90
2019-05-18T16:34:13.358Z,5.05
2019-05-18T16:36:46.995Z,3.83
2019-05-18T16:39:20.576Z,6.28
2019-05-18T16:41:54.064Z,4.40
2019-05-18T16:44:27.616Z,5.58
2019-05-18T16:47:01.137Z,4.65
2019-05-18T16:49:38.830Z,5.47
2019-05-18T16:52:12.384Z,4.10
2019-05-18T16:54:45.965Z,4.97
2019-05-18T16:57:19.635Z,3.98
2019-05-18T16:59:53.293Z,4.55
2019-05-18T17:02:31.802Z,4.08
2019-05-18T17:05:02.219Z,3.95
2019-05-18T17:07:36.088Z,3.85
2019-05-18T17:10:10.250Z,3.92
2019-05-18T17:12:44.015Z,3.87
2019-05-18T17:15:17.924Z,4.45
2019-05-18T17:17:51.574Z,4.25
2019-05-18T17:20:25.192Z,4.87
2019-05-18T17:22:58.955Z,4.03
2019-05-18T17:25:32.666Z,4.20
2019-05-18T17:28:06.275Z,4.50
2019-05-18T17:30:42.575Z,4.28
2019-05-18T17:33:15.284Z,3.80
2019-05-18T17:35:59.858Z,4.17
2019-05-18T17:38:24.216Z,4.30
2019-05-18T17:40:57.777Z,4.37
2019-05-18T17:43:31.457Z,3.40
2019-05-18T17:46:05.141Z,4.67
2019-05-18T17:48:38.619Z,4.22
2019-05-18T17:51:12.175Z,5.12
2019-05-18T17:53:45.655Z,5.90
2019-05-18T17:56:19.181Z,4.90
2019-05-18T17:58:52.695Z,4.45
2019-05-18T18:01:26.265Z,4.53
2019-05-18T18:03:59.815Z,4.45
2019-05-18T18:06:33.315Z,4.97
2019-05-18T18:09:08.243Z,3.80
2019-05-18T18:11:41.732Z,5.17
2019-05-18T18:14:15.208Z,4.28
2019-05-18T18:16:48.685Z,4.65
2019-05-18T18:19:22.342Z,4.60
2019-05-18T18:21:55.825Z,4.30
2019-05-18T18:24:29.445Z,4.72
2019-05-18T18:27:03.000Z,5.17
2019-05-18T18:29:36.656Z,4.87
2019-05-18T18:32:10.219Z,5.70
2019-05-18T18:34:43.948Z,5.47
2019-05-18T18:37:17.423Z,6.00
2019-05-18T18:39:50.959Z,5.72
2019-05-18T18:42:25.601Z,5.40
2019-05-18T18:44:59.136Z,5.47
2019-05-18T18:47:32.624Z,5.75
2019-05-18T18:50:09.455Z,5.67
2019-05-18T18:52:45.821Z,4.72
2019-05-18T18:55:19.389Z,5.55
2019-05-18T18:57:52.874Z,5.65
2019-05-18T19:00:26.351Z,5.75
2019-05-18T19:02:59.827Z,6.15
2019-05-18T19:05:33.358Z,6.17
2019-05-18T19:08:06.996Z,6.65
2019-05-18T19:10:40.568Z,6.25
2019-05-18T19:13:14.052Z,5.65
2019-05-18T19:15:47.555Z,6.83
2019-05-18T19:18:21.042Z,6.87
2019-05-18T19:20:54.585Z,5.90
2019-05-18T19:23:28.154Z,6.50
2019-05-18T19:26:01.637Z,6.45
2019-05-18T19:28:35.154Z,6.47
2019-05-18T19:31:08.611Z,7.50
2019-05-18T19:33:42.115Z,6.75
2019-05-18T19:36:15.639Z,7.47
2019-05-18T19:38:49.218Z,9.58
2019-05-18T19:41:22.817Z,9.08
2019-05-18T19:43:56.473Z,9.58
2019-05-18T19:46:30.026Z,10.00
2019-05-18T19:49:03.532Z,9.55
2019-05-18T19:51:37.062Z,10.10
2019-05-18T19:54:10.663Z,10.30
2019-05-18T19:56:44.627Z,10.43
2019-05-18T19:59:18.311Z,10.98
2019-05-18T20:01:51.799Z,10.80
2019-05-18T20:04:25.356Z,11.43
2019-05-18T20:06:58.851Z,11.97
2019-05-18T20:09:32.331Z,13.10
2019-05-18T20:12:05.870Z,14.33
2019-05-18T20:14:39.376Z,15.48
2019-05-18T20:17:12.959Z,15.35
2019-05-18T20:19:46.525Z,15.43
2019-05-18T20:22:20.067Z,15.95
2019-05-18T20:24:53.649Z,15.95
2019-05-18T20:27:27.202Z,17.80
2019-05-18T20:30:00.696Z,15.95
2019-05-18T20:32:34.213Z,17.10
2019-05-18T20:35:08.519Z,17.20
2019-05-18T20:37:42.477Z,17.95
2019-05-18T20:40:16.095Z,17.90
2019-05-18T20:42:49.633Z,18.37
2019-05-18T20:45:23.282Z,18.85
2019-05-18T20:47:56.764Z,18.92
2019-05-18T20:50:30.277Z,17.87
2019-05-18T20:53:03.828Z,19.35
2019-05-18T20:55:37.322Z,19.25
2019-05-18T20:58:10.879Z,18.87
2019-05-18T21:00:44.546Z,20.45
2019-05-18T21:03:18.127Z,19.45
2019-05-18T21:05:51.677Z,19.20
2019-05-18T21:08:25.151Z,19.48
2019-05-18T21:10:58.659Z,20.17
2019-05-18T21:13:32.155Z,20.75
2019-05-18T21:16:05.904Z,21.70
2019-05-18T21:18:39.386Z,22.02
2019-05-18T21:21:12.885Z,22.22
2019-05-18T21:23:46.356Z,22.73
2019-05-18T21:26:19.852Z,22.15
2019-05-18T21:28:56.389Z,23.15
2019-05-18T21:31:28.536Z,24.50
2019-05-18T21:34:02.012Z,22.58
2019-05-18T21:36:35.513Z,24.37
2019-05-18T21:39:08.985Z,23.22
2019-05-18T21:41:42.595Z,24.60
2019-05-18T21:44:16.106Z,25.12
2019-05-18T21:46:49.732Z,24.72
2019-05-18T21:49:23.233Z,24.98
2019-05-18T21:51:56.778Z,24.43
2019-05-18T21:54:30.308Z,26.68
2019-05-18T21:57:03.780Z,25.80
2019-05-18T21:59:37.347Z,26.00
2019-05-18T22:02:11.226Z,25.95
2019-05-18T22:04:44.863Z,26.05
2019-05-18T22:07:18.476Z,26.33
2019-05-18T22:09:53.790Z,27.40
2019-05-18T22:12:27.690Z,26.65
2019-05-18T22:15:03.379Z,27.58
2019-05-18T22:17:54.927Z,28.70
2019-05-18T22:20:28.503Z,26.20
2019-05-18T22:23:02.330Z,28.52
2019-05-18T22:25:35.975Z,28.47
2019-05-18T22:28:09.464Z,29.15
2019-05-18T22:30:43.117Z,27.62
2019-05-18T22:33:16.668Z,27.80
2019-05-18T22:35:50.268Z,27.55
2019-05-18T22:38:23.760Z,27.27
2019-05-18T22:40:57.284Z,27.87
2019-05-18T22:43:30.849Z,27.62
2019-05-18T22:46:04.356Z,29.60
2019-05-18T22:48:41.182Z,29.25
2019-05-18T22:51:13.259Z,28.57
2019-05-18T22:53:46.775Z,28.55
2019-05-18T22:56:20.417Z,28.52
2019-05-18T22:58:53.887Z,28.90
2019-05-18T23:01:27.925Z,30.32
2019-05-18T23:04:01.475Z,29.07
2019-05-18T23:06:35.058Z,28.95
2019-05-18T23:09:08.683Z,29.67
2019-05-18T23:11:46.792Z,29.05
2019-05-18T23:14:20.350Z,27.07
2019-05-18T23:16:53.974Z,30.15
2019-05-18T23:19:27.552Z,29.60
2019-05-18T23:22:01.067Z,30.45
2019-05-18T23:24:34.624Z,30.23
2019-05-18T23:27:08.269Z,31.12
2019-05-18T23:29:41.872Z,29.95
2019-05-18T23:32:15.785Z,31.50
2019-05-18T23:34:49.325Z,29.98
2019-05-18T23:37:23.051Z,31.85
2019-05-18T23:39:56.726Z,31.37
2019-05-18T23:42:30.246Z,30.20
2019-05-18T23:45:05.293Z,31.05
2019-05-18T23:47:38.921Z,31.17
2019-05-18T23:50:12.690Z,30.52
2019-05-18T23:52:46.287Z,31.80
2019-05-18T23:55:19.832Z,31.80
2019-05-18T23:57:53.423Z,31.10
